sensor_id;sensor_type;location;lat;lon;timestamp;P1;durP1;ratioP1;P2;durP2;ratioP2
7823;SDS011;3957;48.61947800;9.05303100;2022-10-23T00:01:19;2.90;;;2.00;;
7823;SDS011;3957;48.61947800;9.05303100;2022-10-23T00:02:42;5.28;;;2.33;;
7823;SDS011;3957;48.61947800;9.05303100;2022-10-23T00:04:04;2.17;;;1.98;;
7823;SDS011;3957;48.61947800;9.05303100;2022-10-23T00:05:32;4.97;;;2.28;;
7823;SDS011;3957;48.61947800;9.05303100;2022-10-23T00:06:53;4.55;;;2.40;;
7823;SDS011;3957;48.61947800;9.05303100;2022-10-23T00:08:13;2.50;;;2.17;;
7823;SDS011;3957;48.61947800;9.05303100;2022-10-23T00:09:34;4.05;;;2.40;;
7823;SDS011;3957;48.61947800;9.05303100;2022-10-23T00:10:55;3.67;;;2.10;;
7823;SDS011;3957;48.61947800;9.05303100;2022-10-23T00:12:16;2.47;;;1.90;;
7823;SDS011;3957;48.61947800;9.05303100;2022-10-23T00:13:36;4.07;;;2.20;;
7823;SDS011;3957;48.61947800;9.05303100;2022-10-23T00:14:58;2.03;;;1.83;;
7823;SDS011;3957;48.61947800;9.05303100;2022-10-23T00:16:18;2.47;;;2.05;;
7823;SDS011;3957;48.61947800;9.05303100;2022-10-23T00:17:39;5.25;;;2.10;;
7823;SDS011;3957;48.61947800;9.05303100;2022-10-23T00:19:00;3.72;;;2.15;;
7823;SDS011;3957;48.61947800;9.05303100;2022-10-23T00:20:21;2.83;;;2.17;;
7823;SDS011;3957;48.61947800;9.05303100;2022-10-23T00:21:42;2.65;;;1.92;;
7823;SDS011;3957;48.61947800;9.05303100;2022-10-23T00:23:03;2.80;;;1.92;;
7823;SDS011;3957;48.61947800;9.05303100;2022-10-23T00:24:23;3.10;;;2.03;;
7823;SDS011;3957;48.61947800;9.05303100;2022-10-23T00:25:44;3.03;;;1.98;;
7823;SDS011;3957;48.61947800;9.05303100;2022-10-23T00:27:05;2.70;;;2.08;;
7823;SDS011;3957;48.61947800;9.05303100;2022-10-23T00:28:25;4.38;;;2.08;;
7823;SDS011;3957;48.61947800;9.05303100;2022-10-23T00:29:46;2.75;;;2.10;;
7823;SDS011;3957;48.61947800;9.05303100;2022-10-23T00:31:07;2.83;;;1.80;;
7823;SDS011;3957;48.61947800;9.05303100;2022-10-23T00:32:28;2.03;;;1.90;;
7823;SDS011;3957;48.61947800;9.05303100;2022-10-23T00:33:49;2.33;;;1.83;;
7823;SDS011;3957;48.61947800;9.05303100;2022-10-23T00:35:11;3.00;;;1.95;;
7823;SDS011;3957;48.61947800;9.05303100;2022-10-23T00:36:32;4.43;;;1.95;;
7823;SDS011;3957;48.61947800;9.05303100;2022-10-23T00:37:53;3.75;;;2.13;;
7823;SDS011;3957;48.61947800;9.05303100;2022-10-23T00:39:14;2.53;;;1.80;;
7823;SDS011;3957;48.61947800;9.05303100;2022-10-23T00:40:35;3.75;;;2.20;;
7823;SDS011;3957;48.61947800;9.05303100;2022-10-23T00:41:56;3.22;;;1.60;;
7823;SDS011;3957;48.61947800;9.05303100;2022-10-23T00:43:18;5.60;;;1.90;;
7823;SDS011;3957;48.61947800;9.05303100;2022-10-23T00:46:01;2.10;;;1.97;;
7823;SDS011;3957;48.61947800;9.05303100;2022-10-23T00:47:22;2.20;;;1.95;;
7823;SDS011;3957;48.61947800;9.05303100;2022-10-23T00:48:43;2.85;;;1.80;;
7823;SDS011;3957;48.61947800;9.05303100;2022-10-23T00:50:04;2.63;;;1.90;;
7823;SDS011;3957;48.61947800;9.05303100;2022-10-23T00:51:27;4.28;;;1.73;;
7823;SDS011;3957;48.61947800;9.05303100;2022-10-23T00:52:51;1.80;;;1.70;;
7823;SDS011;3957;48.61947800;9.05303100;2022-10-23T00:54:14;4.13;;;2.00;;
7823;SDS011;3957;48.61947800;9.05303100;2022-10-23T00:55:37;2.72;;;1.75;;
7823;SDS011;3957;48.61947800;9.05303100;2022-10-23T00:57:06;4.30;;;2.00;;
7823;SDS011;3957;48.61947800;9.05303100;2022-10-23T00:58:30;2.00;;;1.80;;
7823;SDS011;3957;48.61947800;9.05303100;2022-10-23T00:59:51;2.50;;;1.88;;
7823;SDS011;3957;48.61947800;9.05303100;2022-10-23T01:01:15;4.63;;;2.00;;
7823;SDS011;3957;48.61947800;9.05303100;2022-10-23T01:02:38;2.53;;;1.70;;
7823;SDS011;3957;48.61947800;9.05303100;2022-10-23T01:04:00;5.60;;;2.20;;
7823;SDS011;3957;48.61947800;9.05303100;2022-10-23T01:05:34;2.25;;;1.83;;
7823;SDS011;3957;48.61947800;9.05303100;2022-10-23T01:07:10;2.88;;;1.70;;
7823;SDS011;3957;48.61947800;9.05303100;2022-10-23T01:08:51;3.35;;;2.03;;
7823;SDS011;3957;48.61947800;9.05303100;2022-10-23T01:10:29;3.53;;;2.13;;
7823;SDS011;3957;48.61947800;9.05303100;2022-10-23T01:15:47;1.63;;;1.52;;
7823;SDS011;3957;48.61947800;9.05303100;2022-10-23T01:17:22;4.30;;;1.92;;
7823;SDS011;3957;48.61947800;9.05303100;2022-10-23T01:24:05;1.50;;;1.40;;
7823;SDS011;3957;48.61947800;9.05303100;2022-10-23T01:27:36;2.28;;;1.70;;
7823;SDS011;3957;48.61947800;9.05303100;2022-10-23T01:29:12;2.90;;;1.40;;
7823;SDS011;3957;48.61947800;9.05303100;2022-10-23T01:30:39;1.90;;;1.60;;
7823;SDS011;3957;48.61947800;9.05303100;2022-10-23T01:32:11;2.93;;;1.90;;
7823;SDS011;3957;48.61947800;9.05303100;2022-10-23T01:33:40;3.17;;;2.03;;
7823;SDS011;3957;48.61947800;9.05303100;2022-10-23T01:35:11;2.50;;;1.70;;
7823;SDS011;3957;48.61947800;9.05303100;2022-10-23T01:36:48;2.33;;;1.85;;
7823;SDS011;3957;48.61947800;9.05303100;2022-10-23T01:38:15;3.15;;;2.00;;
7823;SDS011;3957;48.61947800;9.05303100;2022-10-23T01:39:43;2.28;;;1.88;;
7823;SDS011;3957;48.61947800;9.05303100;2022-10-23T01:41:12;3.30;;;1.83;;
7823;SDS011;3957;48.61947800;9.05303100;2022-10-23T01:42:38;1.98;;;1.80;;
7823;SDS011;3957;48.61947800;9.05303100;2022-10-23T01:45:39;4.00;;;1.70;;
7823;SDS011;3957;48.61947800;9.05303100;2022-10-23T01:47:08;2.97;;;2.00;;
7823;SDS011;3957;48.61947800;9.05303100;2022-10-23T01:48:46;1.60;;;1.50;;
7823;SDS011;3957;48.61947800;9.05303100;2022-10-23T01:50:11;2.35;;;1.80;;
7823;SDS011;3957;48.61947800;9.05303100;2022-10-23T01:51:38;2.08;;;1.60;;
7823;SDS011;3957;48.61947800;9.05303100;2022-10-23T01:53:03;1.90;;;1.52;;
7823;SDS011;3957;48.61947800;9.05303100;2022-10-23T01:54:25;1.80;;;1.50;;
7823;SDS011;3957;48.61947800;9.05303100;2022-10-23T01:55:50;1.55;;;1.45;;
7823;SDS011;3957;48.61947800;9.05303100;2022-10-23T01:57:17;1.75;;;1.63;;
7823;SDS011;3957;48.61947800;9.05303100;2022-10-23T01:58:41;2.60;;;1.75;;
7823;SDS011;3957;48.61947800;9.05303100;2022-10-23T02:00:06;3.78;;;1.67;;
7823;SDS011;3957;48.61947800;9.05303100;2022-10-23T02:01:45;2.17;;;1.85;;
7823;SDS011;3957;48.61947800;9.05303100;2022-10-23T02:03:08;2.05;;;1.73;;
7823;SDS011;3957;48.61947800;9.05303100;2022-10-23T02:04:36;1.67;;;1.58;;
7823;SDS011;3957;48.61947800;9.05303100;2022-10-23T02:06:00;2.20;;;1.60;;
7823;SDS011;3957;48.61947800;9.05303100;2022-10-23T02:07:21;4.10;;;1.73;;
7823;SDS011;3957;48.61947800;9.05303100;2022-10-23T02:08:43;2.50;;;1.35;;
7823;SDS011;3957;48.61947800;9.05303100;2022-10-23T02:10:04;2.25;;;1.52;;
7823;SDS011;3957;48.61947800;9.05303100;2022-10-23T02:11:26;2.20;;;1.48;;
7823;SDS011;3957;48.61947800;9.05303100;2022-10-23T02:12:59;1.95;;;1.75;;
7823;SDS011;3957;48.61947800;9.05303100;2022-10-23T02:15:49;3.10;;;2.10;;
7823;SDS011;3957;48.61947800;9.05303100;2022-10-23T02:17:20;4.65;;;2.28;;
7823;SDS011;3957;48.61947800;9.05303100;2022-10-23T02:18:50;3.17;;;2.10;;
7823;SDS011;3957;48.61947800;9.05303100;2022-10-23T02:22:18;3.28;;;2.40;;
7823;SDS011;3957;48.61947800;9.05303100;2022-10-23T02:24:02;3.45;;;2.47;;
7823;SDS011;3957;48.61947800;9.05303100;2022-10-23T02:25:35;2.42;;;2.15;;
7823;SDS011;3957;48.61947800;9.05303100;2022-10-23T02:27:10;2.60;;;2.22;;
7823;SDS011;3957;48.61947800;9.05303100;2022-10-23T02:28:37;2.40;;;2.20;;
7823;SDS011;3957;48.61947800;9.05303100;2022-10-23T02:30:12;3.00;;;2.40;;
7823;SDS011;3957;48.61947800;9.05303100;2022-10-23T02:31:40;3.97;;;2.00;;
7823;SDS011;3957;48.61947800;9.05303100;2022-10-23T02:33:01;2.33;;;1.98;;
7823;SDS011;3957;48.61947800;9.05303100;2022-10-23T02:34:25;2.22;;;1.90;;
7823;SDS011;3957;48.61947800;9.05303100;2022-10-23T02:35:46;2.20;;;1.77;;
7823;SDS011;3957;48.61947800;9.05303100;2022-10-23T02:37:15;2.67;;;1.90;;
7823;SDS011;3957;48.61947800;9.05303100;2022-10-23T02:38:37;2.65;;;2.00;;
7823;SDS011;3957;48.61947800;9.05303100;2022-10-23T02:40:00;2.65;;;2.08;;
7823;SDS011;3957;48.61947800;9.05303100;2022-10-23T02:43:06;2.92;;;1.98;;
7823;SDS011;3957;48.61947800;9.05303100;2022-10-23T02:44:39;1.98;;;1.80;;
7823;SDS011;3957;48.61947800;9.05303100;2022-10-23T02:46:10;1.70;;;1.60;;
7823;SDS011;3957;48.61947800;9.05303100;2022-10-23T02:47:51;1.70;;;1.60;;
7823;SDS011;3957;48.61947800;9.05303100;2022-10-23T02:53:55;3.53;;;1.90;;
7823;SDS011;3957;48.61947800;9.05303100;2022-10-23T02:57:09;2.20;;;1.88;;
7823;SDS011;3957;48.61947800;9.05303100;2022-10-23T03:00:24;2.15;;;1.80;;
7823;SDS011;3957;48.61947800;9.05303100;2022-10-23T03:01:50;2.28;;;2.05;;
7823;SDS011;3957;48.61947800;9.05303100;2022-10-23T03:03:20;2.40;;;1.95;;
7823;SDS011;3957;48.61947800;9.05303100;2022-10-23T03:04:45;4.07;;;1.92;;
7823;SDS011;3957;48.61947800;9.05303100;2022-10-23T03:06:07;2.25;;;1.88;;
7823;SDS011;3957;48.61947800;9.05303100;2022-10-23T03:07:29;4.78;;;1.92;;
7823;SDS011;3957;48.61947800;9.05303100;2022-10-23T03:08:59;2.55;;;1.70;;
7823;SDS011;3957;48.61947800;9.05303100;2022-10-23T03:10:23;3.10;;;1.77;;
7823;SDS011;3957;48.61947800;9.05303100;2022-10-23T03:11:44;2.03;;;1.90;;
7823;SDS011;3957;48.61947800;9.05303100;2022-10-23T03:13:05;2.40;;;1.85;;
7823;SDS011;3957;48.61947800;9.05303100;2022-10-23T03:14:33;4.00;;;2.05;;
7823;SDS011;3957;48.61947800;9.05303100;2022-10-23T03:15:56;2.45;;;2.00;;
7823;SDS011;3957;48.61947800;9.05303100;2022-10-23T03:17:20;2.40;;;1.90;;
7823;SDS011;3957;48.61947800;9.05303100;2022-10-23T03:18:41;5.95;;;2.10;;
7823;SDS011;3957;48.61947800;9.05303100;2022-10-23T03:20:04;3.88;;;2.17;;
7823;SDS011;3957;48.61947800;9.05303100;2022-10-23T03:21:25;3.70;;;2.58;;
7823;SDS011;3957;48.61947800;9.05303100;2022-10-23T03:22:47;4.93;;;2.38;;
7823;SDS011;3957;48.61947800;9.05303100;2022-10-23T03:24:08;4.18;;;2.45;;
7823;SDS011;3957;48.61947800;9.05303100;2022-10-23T03:25:35;4.00;;;2.38;;
7823;SDS011;3957;48.61947800;9.05303100;2022-10-23T03:26:56;2.85;;;2.17;;
7823;SDS011;3957;48.61947800;9.05303100;2022-10-23T03:28:23;3.30;;;2.05;;
7823;SDS011;3957;48.61947800;9.05303100;2022-10-23T03:29:44;2.40;;;2.20;;
7823;SDS011;3957;48.61947800;9.05303100;2022-10-23T03:31:05;2.47;;;1.88;;
7823;SDS011;3957;48.61947800;9.05303100;2022-10-23T03:32:26;1.90;;;1.80;;
7823;SDS011;3957;48.61947800;9.05303100;2022-10-23T03:33:46;2.20;;;2.00;;
7823;SDS011;3957;48.61947800;9.05303100;2022-10-23T03:35:07;2.63;;;2.20;;
7823;SDS011;3957;48.61947800;9.05303100;2022-10-23T03:36:28;2.85;;;2.20;;
7823;SDS011;3957;48.61947800;9.05303100;2022-10-23T03:37:49;2.70;;;2.08;;
7823;SDS011;3957;48.61947800;9.05303100;2022-10-23T03:39:10;3.47;;;2.05;;
7823;SDS011;3957;48.61947800;9.05303100;2022-10-23T03:40:30;1.83;;;1.70;;
7823;SDS011;3957;48.61947800;9.05303100;2022-10-23T03:41:51;3.17;;;1.85;;
7823;SDS011;3957;48.61947800;9.05303100;2022-10-23T03:43:12;2.60;;;2.38;;
7823;SDS011;3957;48.61947800;9.05303100;2022-10-23T03:44:33;2.33;;;2.10;;
7823;SDS011;3957;48.61947800;9.05303100;2022-10-23T03:45:56;2.08;;;1.88;;
7823;SDS011;3957;48.61947800;9.05303100;2022-10-23T03:47:19;2.45;;;2.00;;
7823;SDS011;3957;48.61947800;9.05303100;2022-10-23T03:48:40;2.30;;;2.03;;
7823;SDS011;3957;48.61947800;9.05303100;2022-10-23T03:50:01;2.30;;;2.10;;
7823;SDS011;3957;48.61947800;9.05303100;2022-10-23T03:51:24;3.53;;;2.10;;
7823;SDS011;3957;48.61947800;9.05303100;2022-10-23T03:52:46;3.40;;;2.25;;
7823;SDS011;3957;48.61947800;9.05303100;2022-10-23T03:54:07;2.60;;;2.15;;
7823;SDS011;3957;48.61947800;9.05303100;2022-10-23T03:55:28;2.65;;;2.20;;
7823;SDS011;3957;48.61947800;9.05303100;2022-10-23T03:56:49;2.55;;;2.30;;
7823;SDS011;3957;48.61947800;9.05303100;2022-10-23T03:58:10;2.70;;;1.92;;
7823;SDS011;3957;48.61947800;9.05303100;2022-10-23T03:59:30;2.58;;;2.35;;
7823;SDS011;3957;48.61947800;9.05303100;2022-10-23T04:00:52;2.45;;;2.08;;
7823;SDS011;3957;48.61947800;9.05303100;2022-10-23T04:02:13;2.55;;;2.15;;
7823;SDS011;3957;48.61947800;9.05303100;2022-10-23T04:03:34;4.00;;;1.88;;
7823;SDS011;3957;48.61947800;9.05303100;2022-10-23T04:04:55;2.83;;;2.20;;
7823;SDS011;3957;48.61947800;9.05303100;2022-10-23T04:06:16;2.85;;;1.85;;
7823;SDS011;3957;48.61947800;9.05303100;2022-10-23T04:07:37;2.88;;;2.20;;
7823;SDS011;3957;48.61947800;9.05303100;2022-10-23T04:08:58;1.75;;;1.65;;
7823;SDS011;3957;48.61947800;9.05303100;2022-10-23T04:10:19;3.08;;;1.90;;
7823;SDS011;3957;48.61947800;9.05303100;2022-10-23T04:11:39;2.10;;;1.90;;
7823;SDS011;3957;48.61947800;9.05303100;2022-10-23T04:13:00;2.47;;;1.92;;
7823;SDS011;3957;48.61947800;9.05303100;2022-10-23T04:14:21;2.28;;;2.08;;
7823;SDS011;3957;48.61947800;9.05303100;2022-10-23T04:15:48;3.78;;;2.03;;
7823;SDS011;3957;48.61947800;9.05303100;2022-10-23T04:17:10;2.17;;;1.98;;
7823;SDS011;3957;48.61947800;9.05303100;2022-10-23T04:18:31;2.10;;;1.90;;
7823;SDS011;3957;48.61947800;9.05303100;2022-10-23T04:19:52;2.38;;;1.80;;
7823;SDS011;3957;48.61947800;9.05303100;2022-10-23T04:21:13;2.03;;;1.83;;
7823;SDS011;3957;48.61947800;9.05303100;2022-10-23T04:22:33;2.00;;;1.83;;
7823;SDS011;3957;48.61947800;9.05303100;2022-10-23T04:23:54;2.65;;;2.45;;
7823;SDS011;3957;48.61947800;9.05303100;2022-10-23T04:25:16;3.83;;;2.10;;
7823;SDS011;3957;48.61947800;9.05303100;2022-10-23T04:26:38;3.85;;;2.58;;
7823;SDS011;3957;48.61947800;9.05303100;2022-10-23T04:27:58;4.30;;;2.33;;
7823;SDS011;3957;48.61947800;9.05303100;2022-10-23T04:29:20;2.80;;;2.30;;
7823;SDS011;3957;48.61947800;9.05303100;2022-10-23T04:30:43;2.80;;;2.15;;
7823;SDS011;3957;48.61947800;9.05303100;2022-10-23T04:32:06;2.13;;;1.92;;
7823;SDS011;3957;48.61947800;9.05303100;2022-10-23T04:33:27;2.47;;;2.20;;
7823;SDS011;3957;48.61947800;9.05303100;2022-10-23T04:34:48;2.67;;;2.03;;
7823;SDS011;3957;48.61947800;9.05303100;2022-10-23T04:36:09;3.30;;;2.08;;
7823;SDS011;3957;48.61947800;9.05303100;2022-10-23T04:37:30;2.17;;;2.00;;
7823;SDS011;3957;48.61947800;9.05303100;2022-10-23T04:38:50;2.00;;;1.83;;
7823;SDS011;3957;48.61947800;9.05303100;2022-10-23T04:40:12;2.95;;;2.42;;
7823;SDS011;3957;48.61947800;9.05303100;2022-10-23T04:41:33;2.97;;;2.28;;
7823;SDS011;3957;48.61947800;9.05303100;2022-10-23T04:42:54;3.40;;;2.10;;
7823;SDS011;3957;48.61947800;9.05303100;2022-10-23T04:44:15;2.57;;;2.10;;
7823;SDS011;3957;48.61947800;9.05303100;2022-10-23T04:45:36;3.40;;;1.90;;
7823;SDS011;3957;48.61947800;9.05303100;2022-10-23T04:46:57;2.97;;;1.90;;
7823;SDS011;3957;48.61947800;9.05303100;2022-10-23T04:48:18;2.47;;;2.13;;
7823;SDS011;3957;48.61947800;9.05303100;2022-10-23T04:49:59;1.87;;;1.77;;
7823;SDS011;3957;48.61947800;9.05303100;2022-10-23T04:51:48;2.30;;;1.80;;
7823;SDS011;3957;48.61947800;9.05303100;2022-10-23T04:53:47;2.38;;;1.88;;
7823;SDS011;3957;48.61947800;9.05303100;2022-10-23T04:55:28;3.22;;;1.83;;
7823;SDS011;3957;48.61947800;9.05303100;2022-10-23T04:57:07;1.85;;;1.75;;
7823;SDS011;3957;48.61947800;9.05303100;2022-10-23T04:58:46;2.97;;;1.90;;
7823;SDS011;3957;48.61947800;9.05303100;2022-10-23T05:00:07;3.22;;;1.90;;
7823;SDS011;3957;48.61947800;9.05303100;2022-10-23T05:01:36;2.17;;;1.55;;
7823;SDS011;3957;48.61947800;9.05303100;2022-10-23T05:03:00;2.13;;;1.93;;
7823;SDS011;3957;48.61947800;9.05303100;2022-10-23T05:04:27;3.83;;;2.30;;
7823;SDS011;3957;48.61947800;9.05303100;2022-10-23T05:06:11;3.38;;;2.28;;
7823;SDS011;3957;48.61947800;9.05303100;2022-10-23T05:07:54;3.17;;;2.20;;
7823;SDS011;3957;48.61947800;9.05303100;2022-10-23T05:09:24;2.97;;;2.13;;
7823;SDS011;3957;48.61947800;9.05303100;2022-10-23T05:11:07;2.30;;;2.10;;
7823;SDS011;3957;48.61947800;9.05303100;2022-10-23T05:12:34;3.33;;;2.13;;
7823;SDS011;3957;48.61947800;9.05303100;2022-10-23T05:13:54;3.65;;;2.50;;
7823;SDS011;3957;48.61947800;9.05303100;2022-10-23T05:15:15;6.63;;;2.50;;
7823;SDS011;3957;48.61947800;9.05303100;2022-10-23T05:16:45;6.25;;;2.30;;
7823;SDS011;3957;48.61947800;9.05303100;2022-10-23T05:18:12;2.50;;;2.20;;
7823;SDS011;3957;48.61947800;9.05303100;2022-10-23T05:19:39;2.30;;;2.10;;
7823;SDS011;3957;48.61947800;9.05303100;2022-10-23T05:21:13;2.63;;;2.30;;
7823;SDS011;3957;48.61947800;9.05303100;2022-10-23T05:22:42;2.92;;;2.08;;
7823;SDS011;3957;48.61947800;9.05303100;2022-10-23T05:24:05;2.80;;;2.10;;
7823;SDS011;3957;48.61947800;9.05303100;2022-10-23T05:25:26;2.42;;;1.90;;
7823;SDS011;3957;48.61947800;9.05303100;2022-10-23T05:26:57;2.38;;;1.83;;
7823;SDS011;3957;48.61947800;9.05303100;2022-10-23T05:28:18;2.30;;;2.10;;
7823;SDS011;3957;48.61947800;9.05303100;2022-10-23T05:29:39;3.22;;;1.98;;
7823;SDS011;3957;48.61947800;9.05303100;2022-10-23T05:31:02;3.38;;;2.00;;
7823;SDS011;3957;48.61947800;9.05303100;2022-10-23T05:32:24;1.85;;;1.75;;
7823;SDS011;3957;48.61947800;9.05303100;2022-10-23T05:33:49;2.28;;;1.70;;
7823;SDS011;3957;48.61947800;9.05303100;2022-10-23T05:35:14;2.97;;;2.00;;
7823;SDS011;3957;48.61947800;9.05303100;2022-10-23T05:36:41;3.28;;;1.90;;
7823;SDS011;3957;48.61947800;9.05303100;2022-10-23T05:38:02;2.10;;;1.90;;
7823;SDS011;3957;48.61947800;9.05303100;2022-10-23T05:39:26;2.72;;;2.20;;
7823;SDS011;3957;48.61947800;9.05303100;2022-10-23T05:40:47;2.20;;;2.00;;
7823;SDS011;3957;48.61947800;9.05303100;2022-10-23T05:42:11;2.60;;;1.90;;
7823;SDS011;3957;48.61947800;9.05303100;2022-10-23T05:43:32;2.47;;;2.00;;
7823;SDS011;3957;48.61947800;9.05303100;2022-10-23T05:45:02;1.90;;;1.67;;
7823;SDS011;3957;48.61947800;9.05303100;2022-10-23T05:46:58;1.80;;;1.60;;
7823;SDS011;3957;48.61947800;9.05303100;2022-10-23T05:48:42;2.00;;;1.63;;
7823;SDS011;3957;48.61947800;9.05303100;2022-10-23T05:50:20;1.63;;;1.52;;
7823;SDS011;3957;48.61947800;9.05303100;2022-10-23T05:52:03;2.40;;;1.42;;
7823;SDS011;3957;48.61947800;9.05303100;2022-10-23T05:53:39;2.28;;;1.60;;
7823;SDS011;3957;48.61947800;9.05303100;2022-10-23T05:55:17;1.52;;;1.42;;
7823;SDS011;3957;48.61947800;9.05303100;2022-10-23T05:56:58;1.80;;;1.70;;
7823;SDS011;3957;48.61947800;9.05303100;2022-10-23T05:58:35;2.15;;;1.85;;
7823;SDS011;3957;48.61947800;9.05303100;2022-10-23T06:00:07;1.80;;;1.55;;
7823;SDS011;3957;48.61947800;9.05303100;2022-10-23T06:01:34;1.70;;;1.50;;
7823;SDS011;3957;48.61947800;9.05303100;2022-10-23T06:02:59;1.50;;;1.40;;
7823;SDS011;3957;48.61947800;9.05303100;2022-10-23T06:04:32;1.50;;;1.40;;
7823;SDS011;3957;48.61947800;9.05303100;2022-10-23T06:06:21;1.95;;;1.77;;
7823;SDS011;3957;48.61947800;9.05303100;2022-10-23T06:07:43;1.90;;;1.40;;
7823;SDS011;3957;48.61947800;9.05303100;2022-10-23T06:09:04;2.20;;;1.70;;
7823;SDS011;3957;48.61947800;9.05303100;2022-10-23T06:10:30;2.50;;;1.70;;
7823;SDS011;3957;48.61947800;9.05303100;2022-10-23T06:11:54;1.58;;;1.48;;
7823;SDS011;3957;48.61947800;9.05303100;2022-10-23T06:13:16;1.70;;;1.60;;
7823;SDS011;3957;48.61947800;9.05303100;2022-10-23T06:14:37;2.10;;;1.65;;
7823;SDS011;3957;48.61947800;9.05303100;2022-10-23T06:15:57;2.28;;;1.73;;
7823;SDS011;3957;48.61947800;9.05303100;2022-10-23T06:17:19;1.83;;;1.70;;
7823;SDS011;3957;48.61947800;9.05303100;2022-10-23T06:18:41;2.10;;;1.50;;
7823;SDS011;3957;48.61947800;9.05303100;2022-10-23T06:20:07;1.60;;;1.40;;
7823;SDS011;3957;48.61947800;9.05303100;2022-10-23T06:21:34;1.92;;;1.60;;
7823;SDS011;3957;48.61947800;9.05303100;2022-10-23T06:22:57;1.77;;;1.60;;
7823;SDS011;3957;48.61947800;9.05303100;2022-10-23T06:24:37;1.70;;;1.52;;
7823;SDS011;3957;48.61947800;9.05303100;2022-10-23T06:26:07;2.25;;;1.80;;
7823;SDS011;3957;48.61947800;9.05303100;2022-10-23T06:27:41;2.75;;;1.70;;
7823;SDS011;3957;48.61947800;9.05303100;2022-10-23T06:29:03;3.88;;;1.50;;
7823;SDS011;3957;48.61947800;9.05303100;2022-10-23T06:30:23;2.15;;;1.50;;
7823;SDS011;3957;48.61947800;9.05303100;2022-10-23T06:31:45;1.90;;;1.70;;
7823;SDS011;3957;48.61947800;9.05303100;2022-10-23T06:33:06;1.80;;;1.63;;
7823;SDS011;3957;48.61947800;9.05303100;2022-10-23T06:34:27;2.47;;;1.50;;
7823;SDS011;3957;48.61947800;9.05303100;2022-10-23T06:35:48;1.50;;;1.40;;
7823;SDS011;3957;48.61947800;9.05303100;2022-10-23T06:37:09;1.13;;;1.02;;
7823;SDS011;3957;48.61947800;9.05303100;2022-10-23T06:38:37;1.40;;;1.30;;
7823;SDS011;3957;48.61947800;9.05303100;2022-10-23T06:39:59;4.63;;;1.60;;
7823;SDS011;3957;48.61947800;9.05303100;2022-10-23T06:41:52;1.60;;;1.50;;
7823;SDS011;3957;48.61947800;9.05303100;2022-10-23T06:43:33;1.45;;;1.35;;
7823;SDS011;3957;48.61947800;9.05303100;2022-10-23T06:45:15;1.83;;;1.30;;
7823;SDS011;3957;48.61947800;9.05303100;2022-10-23T06:46:59;1.70;;;1.30;;
7823;SDS011;3957;48.61947800;9.05303100;2022-10-23T06:48:43;2.03;;;1.35;;
7823;SDS011;3957;48.61947800;9.05303100;2022-10-23T06:50:10;2.08;;;1.33;;
7823;SDS011;3957;48.61947800;9.05303100;2022-10-23T06:51:31;2.65;;;1.60;;
7823;SDS011;3957;48.61947800;9.05303100;2022-10-23T06:52:52;1.40;;;1.30;;
7823;SDS011;3957;48.61947800;9.05303100;2022-10-23T06:54:15;1.35;;;1.20;;
7823;SDS011;3957;48.61947800;9.05303100;2022-10-23T06:55:59;1.27;;;1.17;;
7823;SDS011;3957;48.61947800;9.05303100;2022-10-23T06:57:22;1.45;;;1.35;;
7823;SDS011;3957;48.61947800;9.05303100;2022-10-23T06:58:43;2.20;;;1.33;;
7823;SDS011;3957;48.61947800;9.05303100;2022-10-23T07:00:08;1.50;;;1.30;;
7823;SDS011;3957;48.61947800;9.05303100;2022-10-23T07:01:38;1.40;;;1.30;;
7823;SDS011;3957;48.61947800;9.05303100;2022-10-23T07:03:00;1.40;;;1.20;;
7823;SDS011;3957;48.61947800;9.05303100;2022-10-23T07:04:21;1.40;;;1.20;;
7823;SDS011;3957;48.61947800;9.05303100;2022-10-23T07:05:42;2.30;;;1.40;;
7823;SDS011;3957;48.61947800;9.05303100;2022-10-23T07:07:07;3.40;;;1.25;;
7823;SDS011;3957;48.61947800;9.05303100;2022-10-23T07:08:37;1.40;;;1.30;;
7823;SDS011;3957;48.61947800;9.05303100;2022-10-23T07:10:09;1.45;;;1.33;;
7823;SDS011;3957;48.61947800;9.05303100;2022-10-23T07:11:37;1.90;;;1.25;;
7823;SDS011;3957;48.61947800;9.05303100;2022-10-23T07:12:58;1.33;;;1.15;;
7823;SDS011;3957;48.61947800;9.05303100;2022-10-23T07:14:50;2.20;;;1.30;;
7823;SDS011;3957;48.61947800;9.05303100;2022-10-23T07:16:11;2.35;;;1.30;;
7823;SDS011;3957;48.61947800;9.05303100;2022-10-23T07:17:43;1.55;;;1.08;;
7823;SDS011;3957;48.61947800;9.05303100;2022-10-23T07:19:04;1.25;;;1.15;;
7823;SDS011;3957;48.61947800;9.05303100;2022-10-23T07:20:45;1.10;;;1.08;;
7823;SDS011;3957;48.61947800;9.05303100;2022-10-23T07:22:09;1.20;;;1.10;;
7823;SDS011;3957;48.61947800;9.05303100;2022-10-23T07:23:42;3.03;;;1.40;;
7823;SDS011;3957;48.61947800;9.05303100;2022-10-23T07:25:04;1.95;;;1.25;;
7823;SDS011;3957;48.61947800;9.05303100;2022-10-23T07:26:30;2.15;;;1.23;;
7823;SDS011;3957;48.61947800;9.05303100;2022-10-23T07:27:52;1.17;;;1.10;;
7823;SDS011;3957;48.61947800;9.05303100;2022-10-23T07:29:16;1.20;;;1.10;;
7823;SDS011;3957;48.61947800;9.05303100;2022-10-23T07:30:37;1.33;;;1.10;;
7823;SDS011;3957;48.61947800;9.05303100;2022-10-23T07:32:00;1.83;;;1.20;;
7823;SDS011;3957;48.61947800;9.05303100;2022-10-23T07:33:23;1.90;;;1.17;;
7823;SDS011;3957;48.61947800;9.05303100;2022-10-23T07:34:54;2.20;;;1.30;;
7823;SDS011;3957;48.61947800;9.05303100;2022-10-23T07:36:22;1.50;;;1.10;;
7823;SDS011;3957;48.61947800;9.05303100;2022-10-23T07:37:42;2.95;;;1.08;;
7823;SDS011;3957;48.61947800;9.05303100;2022-10-23T07:39:03;1.02;;;1.02;;
7823;SDS011;3957;48.61947800;9.05303100;2022-10-23T07:40:25;1.30;;;1.20;;
7823;SDS011;3957;48.61947800;9.05303100;2022-10-23T07:41:50;1.13;;;1.02;;
7823;SDS011;3957;48.61947800;9.05303100;2022-10-23T07:43:12;1.55;;;1.35;;
7823;SDS011;3957;48.61947800;9.05303100;2022-10-23T07:44:33;2.08;;;1.00;;
7823;SDS011;3957;48.61947800;9.05303100;2022-10-23T07:45:54;1.17;;;0.98;;
7823;SDS011;3957;48.61947800;9.05303100;2022-10-23T07:47:24;1.20;;;1.10;;
7823;SDS011;3957;48.61947800;9.05303100;2022-10-23T07:48:45;1.92;;;1.40;;
7823;SDS011;3957;48.61947800;9.05303100;2022-10-23T07:50:07;1.73;;;1.50;;
7823;SDS011;3957;48.61947800;9.05303100;2022-10-23T07:51:28;1.42;;;1.30;;
7823;SDS011;3957;48.61947800;9.05303100;2022-10-23T07:52:53;1.50;;;1.40;;
7823;SDS011;3957;48.61947800;9.05303100;2022-10-23T07:54:17;2.83;;;1.60;;
7823;SDS011;3957;48.61947800;9.05303100;2022-10-23T07:55:58;2.67;;;1.40;;
7823;SDS011;3957;48.61947800;9.05303100;2022-10-23T07:57:36;2.33;;;1.30;;
7823;SDS011;3957;48.61947800;9.05303100;2022-10-23T07:59:11;1.67;;;1.40;;
7823;SDS011;3957;48.61947800;9.05303100;2022-10-23T08:00:32;1.90;;;1.30;;
7823;SDS011;3957;48.61947800;9.05303100;2022-10-23T08:02:07;2.35;;;1.65;;
7823;SDS011;3957;48.61947800;9.05303100;2022-10-23T08:03:31;1.20;;;1.10;;
7823;SDS011;3957;48.61947800;9.05303100;2022-10-23T08:04:54;2.07;;;1.20;;
7823;SDS011;3957;48.61947800;9.05303100;2022-10-23T08:06:28;1.50;;;1.40;;
7823;SDS011;3957;48.61947800;9.05303100;2022-10-23T08:07:50;1.50;;;1.20;;
7823;SDS011;3957;48.61947800;9.05303100;2022-10-23T08:09:11;1.30;;;1.20;;
7823;SDS011;3957;48.61947800;9.05303100;2022-10-23T08:10:34;1.30;;;1.20;;